82FD weather

Atc Heliport
Jupiter, Florida, United States

Public forecast

Using degrees Fahrenheit for public forecast. Weather courtesy of forecast.io.

Closest aviation weather report (METAR) to Atc Heliport

Closest report is Witham Field, 13.5 nm (24.9 km) NNW. Retrieved 2019/10/14 10:47 UTC (1 hour ago):

KSUA 141047Z 000000KT 7SM SCT025 23/21 A3005

Closest aviation forecast (TAF) to Atc Heliport

Closest forecast is Witham Field, 13.5 nm (24.9 km) NNW. Retrieved 2019/10/14 06:30 UTC (5 hours ago):

TAF KSUA 140529Z 1406/1506 VRB04KT P6SM FEW030 SCT070 FM141500 08006KT P6SM FEW025 FEW040 FM141800 08010KT P6SM SCT030 SCT060 FM150200 11005KT P6SM FEW035 FEW250